sensor_id;sensor_type;location;lat;lon;timestamp;P1;durP1;ratioP1;P2;durP2;ratioP2
14760;SDS011;7472;45.396;5.272;2022-08-19T00:01:18;5.25;;;4.85;;
14760;SDS011;7472;45.396;5.272;2022-08-19T00:03:45;5.72;;;5.22;;
14760;SDS011;7472;45.396;5.272;2022-08-19T00:06:12;5.72;;;5.22;;
14760;SDS011;7472;45.396;5.272;2022-08-19T00:08:41;5.60;;;5.20;;
14760;SDS011;7472;45.396;5.272;2022-08-19T00:11:10;5.97;;;5.38;;
14760;SDS011;7472;45.396;5.272;2022-08-19T00:13:37;5.72;;;5.25;;
14760;SDS011;7472;45.396;5.272;2022-08-19T00:16:05;6.50;;;5.95;;
14760;SDS011;7472;45.396;5.272;2022-08-19T00:18:33;6.20;;;5.60;;
14760;SDS011;7472;45.396;5.272;2022-08-19T00:21:00;7.40;;;6.80;;
14760;SDS011;7472;45.396;5.272;2022-08-19T00:23:28;5.88;;;5.35;;
14760;SDS011;7472;45.396;5.272;2022-08-19T00:26:00;7.78;;;5.80;;
14760;SDS011;7472;45.396;5.272;2022-08-19T00:28:27;6.85;;;6.25;;
14760;SDS011;7472;45.396;5.272;2022-08-19T00:30:55;5.78;;;5.20;;
14760;SDS011;7472;45.396;5.272;2022-08-19T00:33:22;6.60;;;6.00;;
14760;SDS011;7472;45.396;5.272;2022-08-19T00:35:50;6.63;;;5.95;;
14760;SDS011;7472;45.396;5.272;2022-08-19T00:38:17;6.30;;;5.80;;
14760;SDS011;7472;45.396;5.272;2022-08-19T00:40:47;5.80;;;5.30;;
14760;SDS011;7472;45.396;5.272;2022-08-19T00:43:17;5.53;;;5.10;;
14760;SDS011;7472;45.396;5.272;2022-08-19T00:45:46;5.63;;;5.13;;
14760;SDS011;7472;45.396;5.272;2022-08-19T00:48:15;5.90;;;5.30;;
14760;SDS011;7472;45.396;5.272;2022-08-19T00:50:42;5.70;;;5.30;;
14760;SDS011;7472;45.396;5.272;2022-08-19T00:53:10;6.13;;;5.53;;
14760;SDS011;7472;45.396;5.272;2022-08-19T00:55:40;5.70;;;5.30;;
14760;SDS011;7472;45.396;5.272;2022-08-19T00:58:10;5.93;;;5.40;;
14760;SDS011;7472;45.396;5.272;2022-08-19T01:00:39;6.30;;;5.78;;
14760;SDS011;7472;45.396;5.272;2022-08-19T01:03:08;5.60;;;5.18;;
14760;SDS011;7472;45.396;5.272;2022-08-19T01:05:36;4.50;;;4.00;;
14760;SDS011;7472;45.396;5.272;2022-08-19T01:08:04;6.35;;;5.85;;
14760;SDS011;7472;45.396;5.272;2022-08-19T01:10:37;4.82;;;4.43;;
14760;SDS011;7472;45.396;5.272;2022-08-19T01:13:06;6.00;;;5.50;;
14760;SDS011;7472;45.396;5.272;2022-08-19T01:15:34;5.50;;;5.10;;
14760;SDS011;7472;45.396;5.272;2022-08-19T01:18:05;6.35;;;5.75;;
14760;SDS011;7472;45.396;5.272;2022-08-19T01:20:33;6.82;;;6.22;;
14760;SDS011;7472;45.396;5.272;2022-08-19T01:23:02;6.38;;;5.68;;
14760;SDS011;7472;45.396;5.272;2022-08-19T01:25:31;6.57;;;6.07;;
14760;SDS011;7472;45.396;5.272;2022-08-19T01:27:59;6.00;;;5.43;;
14760;SDS011;7472;45.396;5.272;2022-08-19T01:30:27;6.60;;;6.10;;
14760;SDS011;7472;45.396;5.272;2022-08-19T01:32:56;6.80;;;6.30;;
14760;SDS011;7472;45.396;5.272;2022-08-19T01:35:24;6.20;;;5.70;;
14760;SDS011;7472;45.396;5.272;2022-08-19T01:37:52;7.28;;;6.57;;
14760;SDS011;7472;45.396;5.272;2022-08-19T01:40:24;5.40;;;5.00;;
14760;SDS011;7472;45.396;5.272;2022-08-19T01:42:52;6.32;;;5.82;;
14760;SDS011;7472;45.396;5.272;2022-08-19T01:45:21;6.43;;;5.78;;
14760;SDS011;7472;45.396;5.272;2022-08-19T01:47:48;5.82;;;5.43;;
14760;SDS011;7472;45.396;5.272;2022-08-19T01:50:16;6.35;;;5.85;;
14760;SDS011;7472;45.396;5.272;2022-08-19T01:52:44;6.47;;;5.90;;
14760;SDS011;7472;45.396;5.272;2022-08-19T01:55:12;5.72;;;5.22;;
14760;SDS011;7472;45.396;5.272;2022-08-19T01:57:42;6.00;;;5.50;;
14760;SDS011;7472;45.396;5.272;2022-08-19T02:00:12;6.38;;;5.78;;
14760;SDS011;7472;45.396;5.272;2022-08-19T02:02:40;5.55;;;5.15;;
14760;SDS011;7472;45.396;5.272;2022-08-19T02:05:08;5.60;;;5.20;;
14760;SDS011;7472;45.396;5.272;2022-08-19T02:07:36;5.88;;;5.38;;
14760;SDS011;7472;45.396;5.272;2022-08-19T02:10:04;5.35;;;4.85;;
14760;SDS011;7472;45.396;5.272;2022-08-19T02:12:32;6.25;;;5.75;;
14760;SDS011;7472;45.396;5.272;2022-08-19T02:15:02;6.03;;;5.47;;
14760;SDS011;7472;45.396;5.272;2022-08-19T02:17:29;6.15;;;5.65;;
14760;SDS011;7472;45.396;5.272;2022-08-19T02:19:57;6.00;;;5.50;;
14760;SDS011;7472;45.396;5.272;2022-08-19T02:22:25;6.97;;;6.38;;
14760;SDS011;7472;45.396;5.272;2022-08-19T02:24:52;6.03;;;5.53;;
14760;SDS011;7472;45.396;5.272;2022-08-19T02:27:20;6.57;;;5.95;;
14760;SDS011;7472;45.396;5.272;2022-08-19T02:29:47;7.00;;;6.30;;
14760;SDS011;7472;45.396;5.272;2022-08-19T02:32:17;6.80;;;6.28;;
14760;SDS011;7472;45.396;5.272;2022-08-19T02:34:44;6.13;;;5.53;;
14760;SDS011;7472;45.396;5.272;2022-08-19T02:37:12;6.10;;;5.60;;
14760;SDS011;7472;45.396;5.272;2022-08-19T02:39:53;6.20;;;5.70;;
14760;SDS011;7472;45.396;5.272;2022-08-19T02:42:20;6.38;;;5.80;;
14760;SDS011;7472;45.396;5.272;2022-08-19T02:44:48;6.43;;;5.82;;
14760;SDS011;7472;45.396;5.272;2022-08-19T02:47:16;6.13;;;5.55;;
14760;SDS011;7472;45.396;5.272;2022-08-19T02:49:44;6.60;;;6.00;;
14760;SDS011;7472;45.396;5.272;2022-08-19T02:52:15;7.22;;;6.05;;
14760;SDS011;7472;45.396;5.272;2022-08-19T02:54:42;6.53;;;5.93;;
14760;SDS011;7472;45.396;5.272;2022-08-19T02:57:09;6.90;;;6.30;;
14760;SDS011;7472;45.396;5.272;2022-08-19T02:59:37;6.35;;;5.72;;
14760;SDS011;7472;45.396;5.272;2022-08-19T03:02:04;6.28;;;5.63;;
14760;SDS011;7472;45.396;5.272;2022-08-19T03:04:33;7.63;;;5.80;;
14760;SDS011;7472;45.396;5.272;2022-08-19T03:07:01;6.18;;;5.60;;
14760;SDS011;7472;45.396;5.272;2022-08-19T03:09:28;7.15;;;4.80;;
14760;SDS011;7472;45.396;5.272;2022-08-19T03:11:56;6.07;;;5.47;;
14760;SDS011;7472;45.396;5.272;2022-08-19T03:14:23;6.18;;;5.57;;
14760;SDS011;7472;45.396;5.272;2022-08-19T03:16:51;6.82;;;6.15;;
14760;SDS011;7472;45.396;5.272;2022-08-19T03:19:19;6.53;;;5.30;;
14760;SDS011;7472;45.396;5.272;2022-08-19T03:21:48;5.82;;;5.32;;
14760;SDS011;7472;45.396;5.272;2022-08-19T03:24:16;7.28;;;5.82;;
14760;SDS011;7472;45.396;5.272;2022-08-19T03:26:46;5.57;;;5.00;;
14760;SDS011;7472;45.396;5.272;2022-08-19T03:29:13;5.85;;;5.35;;
14760;SDS011;7472;45.396;5.272;2022-08-19T03:31:41;6.75;;;6.13;;
14760;SDS011;7472;45.396;5.272;2022-08-19T03:34:09;6.10;;;5.32;;
14760;SDS011;7472;45.396;5.272;2022-08-19T03:36:37;6.20;;;5.70;;
14760;SDS011;7472;45.396;5.272;2022-08-19T03:39:06;7.35;;;6.70;;
14760;SDS011;7472;45.396;5.272;2022-08-19T03:41:36;6.38;;;5.78;;
14760;SDS011;7472;45.396;5.272;2022-08-19T03:44:03;6.72;;;6.22;;
14760;SDS011;7472;45.396;5.272;2022-08-19T03:46:32;6.57;;;6.07;;
14760;SDS011;7472;45.396;5.272;2022-08-19T03:49:01;6.68;;;6.07;;
14760;SDS011;7472;45.396;5.272;2022-08-19T03:51:30;6.38;;;5.88;;
14760;SDS011;7472;45.396;5.272;2022-08-19T03:53:58;7.53;;;6.88;;
14760;SDS011;7472;45.396;5.272;2022-08-19T03:56:28;6.10;;;5.50;;
14760;SDS011;7472;45.396;5.272;2022-08-19T03:58:56;6.45;;;5.95;;
14760;SDS011;7472;45.396;5.272;2022-08-19T04:01:26;7.03;;;6.43;;
14760;SDS011;7472;45.396;5.272;2022-08-19T04:03:54;7.25;;;6.57;;
14760;SDS011;7472;45.396;5.272;2022-08-19T04:06:22;7.65;;;6.85;;
14760;SDS011;7472;45.396;5.272;2022-08-19T04:08:51;7.13;;;6.53;;
14760;SDS011;7472;45.396;5.272;2022-08-19T04:11:20;6.65;;;6.07;;
14760;SDS011;7472;45.396;5.272;2022-08-19T04:13:49;7.30;;;6.50;;
14760;SDS011;7472;45.396;5.272;2022-08-19T04:16:17;7.40;;;6.80;;
14760;SDS011;7472;45.396;5.272;2022-08-19T04:18:46;8.63;;;7.82;;
14760;SDS011;7472;45.396;5.272;2022-08-19T04:21:15;7.07;;;6.32;;
14760;SDS011;7472;45.396;5.272;2022-08-19T04:23:42;7.43;;;6.82;;
14760;SDS011;7472;45.396;5.272;2022-08-19T04:26:12;7.13;;;6.50;;
14760;SDS011;7472;45.396;5.272;2022-08-19T04:28:39;8.38;;;6.80;;
14760;SDS011;7472;45.396;5.272;2022-08-19T04:31:11;7.13;;;6.43;;
14760;SDS011;7472;45.396;5.272;2022-08-19T04:33:39;7.75;;;7.07;;
14760;SDS011;7472;45.396;5.272;2022-08-19T04:36:06;7.43;;;6.72;;
14760;SDS011;7472;45.396;5.272;2022-08-19T04:38:35;7.15;;;6.45;;
14760;SDS011;7472;45.396;5.272;2022-08-19T04:41:04;8.27;;;7.50;;
14760;SDS011;7472;45.396;5.272;2022-08-19T04:43:49;7.22;;;6.50;;
14760;SDS011;7472;45.396;5.272;2022-08-19T04:46:18;6.47;;;5.97;;
14760;SDS011;7472;45.396;5.272;2022-08-19T04:48:45;6.60;;;6.10;;
14760;SDS011;7472;45.396;5.272;2022-08-19T04:51:13;6.40;;;5.82;;
14760;SDS011;7472;45.396;5.272;2022-08-19T04:53:41;7.13;;;6.53;;
14760;SDS011;7472;45.396;5.272;2022-08-19T04:56:10;7.22;;;6.47;;
14760;SDS011;7472;45.396;5.272;2022-08-19T04:58:38;7.72;;;7.13;;
14760;SDS011;7472;45.396;5.272;2022-08-19T05:01:08;7.25;;;6.45;;
14760;SDS011;7472;45.396;5.272;2022-08-19T05:03:37;7.28;;;6.68;;
14760;SDS011;7472;45.396;5.272;2022-08-19T05:06:05;8.88;;;7.00;;
14760;SDS011;7472;45.396;5.272;2022-08-19T05:08:33;7.05;;;6.55;;
14760;SDS011;7472;45.396;5.272;2022-08-19T05:11:01;8.15;;;7.40;;
14760;SDS011;7472;45.396;5.272;2022-08-19T05:13:33;7.47;;;6.85;;
14760;SDS011;7472;45.396;5.272;2022-08-19T05:16:01;8.95;;;8.15;;
14760;SDS011;7472;45.396;5.272;2022-08-19T05:18:28;8.73;;;7.93;;
14760;SDS011;7472;45.396;5.272;2022-08-19T05:21:16;9.48;;;8.30;;
14760;SDS011;7472;45.396;5.272;2022-08-19T05:24:01;8.43;;;7.63;;
14760;SDS011;7472;45.396;5.272;2022-08-19T05:26:28;9.77;;;8.70;;
14760;SDS011;7472;45.396;5.272;2022-08-19T05:28:56;9.43;;;8.40;;
14760;SDS011;7472;45.396;5.272;2022-08-19T05:31:23;8.90;;;8.10;;
14760;SDS011;7472;45.396;5.272;2022-08-19T05:33:50;10.10;;;9.10;;
14760;SDS011;7472;45.396;5.272;2022-08-19T05:36:19;9.55;;;7.88;;
14760;SDS011;7472;45.396;5.272;2022-08-19T05:38:46;9.98;;;8.95;;
14760;SDS011;7472;45.396;5.272;2022-08-19T05:41:15;9.73;;;7.65;;
14760;SDS011;7472;45.396;5.272;2022-08-19T05:43:42;10.65;;;9.57;;
14760;SDS011;7472;45.396;5.272;2022-08-19T05:46:15;10.23;;;9.20;;
14760;SDS011;7472;45.396;5.272;2022-08-19T05:48:43;10.73;;;9.82;;
14760;SDS011;7472;45.396;5.272;2022-08-19T05:51:10;11.32;;;10.00;;
14760;SDS011;7472;45.396;5.272;2022-08-19T05:53:39;10.70;;;9.70;;
14760;SDS011;7472;45.396;5.272;2022-08-19T05:56:07;11.18;;;9.18;;
14760;SDS011;7472;45.396;5.272;2022-08-19T05:58:35;10.88;;;9.88;;
14760;SDS011;7472;45.396;5.272;2022-08-19T06:01:03;10.30;;;9.32;;
14760;SDS011;7472;45.396;5.272;2022-08-19T06:03:31;9.27;;;8.48;;
14760;SDS011;7472;45.396;5.272;2022-08-19T06:05:59;8.65;;;7.95;;
14760;SDS011;7472;45.396;5.272;2022-08-19T06:08:27;10.30;;;6.90;;
14760;SDS011;7472;45.396;5.272;2022-08-19T06:10:56;8.40;;;7.57;;
14760;SDS011;7472;45.396;5.272;2022-08-19T06:13:24;7.65;;;6.95;;
14760;SDS011;7472;45.396;5.272;2022-08-19T06:15:51;7.43;;;6.72;;
14760;SDS011;7472;45.396;5.272;2022-08-19T06:18:18;7.82;;;7.13;;
14760;SDS011;7472;45.396;5.272;2022-08-19T06:20:46;5.97;;;5.47;;
14760;SDS011;7472;45.396;5.272;2022-08-19T06:23:15;5.38;;;4.90;;
14760;SDS011;7472;45.396;5.272;2022-08-19T06:25:42;5.28;;;4.88;;
14760;SDS011;7472;45.396;5.272;2022-08-19T06:28:11;5.70;;;5.20;;
14760;SDS011;7472;45.396;5.272;2022-08-19T06:30:38;5.40;;;4.95;;
14760;SDS011;7472;45.396;5.272;2022-08-19T06:33:05;5.50;;;5.10;;
14760;SDS011;7472;45.396;5.272;2022-08-19T06:35:37;4.93;;;4.53;;
14760;SDS011;7472;45.396;5.272;2022-08-19T06:38:05;5.50;;;5.00;;
14760;SDS011;7472;45.396;5.272;2022-08-19T06:40:32;4.68;;;4.28;;
14760;SDS011;7472;45.396;5.272;2022-08-19T06:43:00;4.38;;;4.00;;
14760;SDS011;7472;45.396;5.272;2022-08-19T06:45:29;6.35;;;4.70;;
14760;SDS011;7472;45.396;5.272;2022-08-19T06:47:57;5.07;;;4.68;;
14760;SDS011;7472;45.396;5.272;2022-08-19T06:50:24;5.55;;;4.95;;
14760;SDS011;7472;45.396;5.272;2022-08-19T06:52:51;5.25;;;4.75;;
14760;SDS011;7472;45.396;5.272;2022-08-19T06:55:19;6.10;;;4.65;;
14760;SDS011;7472;45.396;5.272;2022-08-19T06:57:46;6.13;;;5.55;;
14760;SDS011;7472;45.396;5.272;2022-08-19T07:00:18;5.93;;;5.53;;
14760;SDS011;7472;45.396;5.272;2022-08-19T07:02:46;6.53;;;6.03;;
14760;SDS011;7472;45.396;5.272;2022-08-19T07:05:14;6.35;;;5.85;;
14760;SDS011;7472;45.396;5.272;2022-08-19T07:07:42;10.55;;;5.63;;
14760;SDS011;7472;45.396;5.272;2022-08-19T07:10:09;6.35;;;5.68;;
14760;SDS011;7472;45.396;5.272;2022-08-19T07:12:36;6.95;;;6.35;;
14760;SDS011;7472;45.396;5.272;2022-08-19T07:15:06;6.35;;;5.88;;
14760;SDS011;7472;45.396;5.272;2022-08-19T07:17:34;5.72;;;5.10;;
14760;SDS011;7472;45.396;5.272;2022-08-19T07:20:06;6.32;;;5.82;;
14760;SDS011;7472;45.396;5.272;2022-08-19T07:22:34;6.57;;;6.07;;
14760;SDS011;7472;45.396;5.272;2022-08-19T07:25:02;8.18;;;5.22;;
14760;SDS011;7472;45.396;5.272;2022-08-19T07:27:29;6.88;;;6.28;;
14760;SDS011;7472;45.396;5.272;2022-08-19T07:29:57;6.40;;;5.90;;
14760;SDS011;7472;45.396;5.272;2022-08-19T07:32:24;6.97;;;6.47;;
14760;SDS011;7472;45.396;5.272;2022-08-19T07:34:52;6.85;;;6.30;;
14760;SDS011;7472;45.396;5.272;2022-08-19T07:37:21;6.80;;;6.13;;
14760;SDS011;7472;45.396;5.272;2022-08-19T07:39:48;7.25;;;6.65;;
14760;SDS011;7472;45.396;5.272;2022-08-19T07:42:15;6.88;;;6.38;;
14760;SDS011;7472;45.396;5.272;2022-08-19T07:44:43;6.88;;;6.38;;
14760;SDS011;7472;45.396;5.272;2022-08-19T07:47:10;6.82;;;6.28;;
14760;SDS011;7472;45.396;5.272;2022-08-19T07:49:40;7.32;;;6.82;;
14760;SDS011;7472;45.396;5.272;2022-08-19T07:52:08;7.40;;;6.80;;
14760;SDS011;7472;45.396;5.272;2022-08-19T07:54:38;9.27;;;7.30;;
14760;SDS011;7472;45.396;5.272;2022-08-19T07:57:06;7.57;;;6.88;;
14760;SDS011;7472;45.396;5.272;2022-08-19T07:59:33;8.40;;;7.70;;
14760;SDS011;7472;45.396;5.272;2022-08-19T08:02:01;7.40;;;6.80;;
14760;SDS011;7472;45.396;5.272;2022-08-19T08:04:29;8.15;;;7.53;;
14760;SDS011;7472;45.396;5.272;2022-08-19T08:07:15;8.18;;;7.45;;
14760;SDS011;7472;45.396;5.272;2022-08-19T08:10:02;6.35;;;5.75;;
14760;SDS011;7472;45.396;5.272;2022-08-19T08:12:31;8.63;;;7.72;;
14760;SDS011;7472;45.396;5.272;2022-08-19T08:15:00;9.27;;;8.48;;
14760;SDS011;7472;45.396;5.272;2022-08-19T08:17:28;8.95;;;8.15;;
14760;SDS011;7472;45.396;5.272;2022-08-19T08:19:56;8.15;;;7.47;;
14760;SDS011;7472;45.396;5.272;2022-08-19T08:22:25;9.40;;;8.60;;
14760;SDS011;7472;45.396;5.272;2022-08-19T08:25:12;7.60;;;7.03;;
14760;SDS011;7472;45.396;5.272;2022-08-19T08:27:41;8.18;;;7.53;;
14760;SDS011;7472;45.396;5.272;2022-08-19T08:30:09;8.52;;;7.88;;
14760;SDS011;7472;45.396;5.272;2022-08-19T08:32:37;9.55;;;8.55;;
14760;SDS011;7472;45.396;5.272;2022-08-19T08:35:06;8.73;;;7.63;;
14760;SDS011;7472;45.396;5.272;2022-08-19T08:37:34;9.95;;;9.15;;
14760;SDS011;7472;45.396;5.272;2022-08-19T08:40:03;9.20;;;8.15;;
14760;SDS011;7472;45.396;5.272;2022-08-19T08:42:34;10.45;;;9.40;;
14760;SDS011;7472;45.396;5.272;2022-08-19T08:45:03;11.02;;;9.85;;
14760;SDS011;7472;45.396;5.272;2022-08-19T08:47:36;10.55;;;9.60;;
14760;SDS011;7472;45.396;5.272;2022-08-19T08:50:06;10.93;;;9.80;;
14760;SDS011;7472;45.396;5.272;2022-08-19T08:52:37;12.93;;;11.73;;
14760;SDS011;7472;45.396;5.272;2022-08-19T08:55:08;12.07;;;11.05;;
14760;SDS011;7472;45.396;5.272;2022-08-19T08:57:49;11.30;;;10.20;;
14760;SDS011;7472;45.396;5.272;2022-08-19T09:00:21;10.80;;;9.70;;
14760;SDS011;7472;45.396;5.272;2022-08-19T09:02:49;11.52;;;10.20;;
14760;SDS011;7472;45.396;5.272;2022-08-19T09:05:17;11.45;;;10.45;;
14760;SDS011;7472;45.396;5.272;2022-08-19T09:07:49;13.02;;;11.93;;
14760;SDS011;7472;45.396;5.272;2022-08-19T09:10:22;13.13;;;11.93;;
14760;SDS011;7472;45.396;5.272;2022-08-19T09:13:04;12.65;;;11.45;;
14760;SDS011;7472;45.396;5.272;2022-08-19T09:15:34;12.93;;;11.73;;
14760;SDS011;7472;45.396;5.272;2022-08-19T09:18:04;15.77;;;14.20;;
14760;SDS011;7472;45.396;5.272;2022-08-19T09:20:32;14.32;;;13.02;;
14760;SDS011;7472;45.396;5.272;2022-08-19T09:22:59;13.70;;;12.45;;
14760;SDS011;7472;45.396;5.272;2022-08-19T09:25:27;14.95;;;13.65;;
14760;SDS011;7472;45.396;5.272;2022-08-19T09:27:57;16.02;;;14.57;;
14760;SDS011;7472;45.396;5.272;2022-08-19T09:30:28;15.68;;;14.07;;
14760;SDS011;7472;45.396;5.272;2022-08-19T09:32:58;15.82;;;14.43;;
14760;SDS011;7472;45.396;5.272;2022-08-19T09:35:26;14.25;;;13.07;;
14760;SDS011;7472;45.396;5.272;2022-08-19T09:37:54;15.90;;;14.52;;
14760;SDS011;7472;45.396;5.272;2022-08-19T09:40:24;15.48;;;13.93;;
14760;SDS011;7472;45.396;5.272;2022-08-19T09:42:53;16.48;;;14.80;;
14760;SDS011;7472;45.396;5.272;2022-08-19T09:45:23;17.10;;;15.45;;
14760;SDS011;7472;45.396;5.272;2022-08-19T09:47:51;18.02;;;14.02;;
14760;SDS011;7472;45.396;5.272;2022-08-19T09:50:19;14.43;;;13.00;;
14760;SDS011;7472;45.396;5.272;2022-08-19T09:52:47;14.75;;;13.27;;
14760;SDS011;7472;45.396;5.272;2022-08-19T09:55:14;18.25;;;16.55;;
14760;SDS011;7472;45.396;5.272;2022-08-19T09:57:42;15.95;;;14.35;;
14760;SDS011;7472;45.396;5.272;2022-08-19T10:00:10;15.77;;;14.30;;
14760;SDS011;7472;45.396;5.272;2022-08-19T10:02:39;16.42;;;14.73;;
14760;SDS011;7472;45.396;5.272;2022-08-19T10:05:06;14.85;;;13.43;;
14760;SDS011;7472;45.396;5.272;2022-08-19T10:07:51;14.85;;;13.55;;
14760;SDS011;7472;45.396;5.272;2022-08-19T10:10:19;13.40;;;12.05;;
14760;SDS011;7472;45.396;5.272;2022-08-19T10:12:47;14.82;;;13.32;;
14760;SDS011;7472;45.396;5.272;2022-08-19T10:15:14;14.40;;;13.20;;
14760;SDS011;7472;45.396;5.272;2022-08-19T10:17:47;16.33;;;14.80;;
14760;SDS011;7472;45.396;5.272;2022-08-19T10:20:14;14.85;;;13.35;;
14760;SDS011;7472;45.396;5.272;2022-08-19T10:22:42;13.23;;;11.85;;
14760;SDS011;7472;45.396;5.272;2022-08-19T10:25:09;11.55;;;10.35;;
14760;SDS011;7472;45.396;5.272;2022-08-19T10:27:40;15.68;;;14.25;;
14760;SDS011;7472;45.396;5.272;2022-08-19T10:30:08;15.57;;;14.15;;
14760;SDS011;7472;45.396;5.272;2022-08-19T10:32:35;14.95;;;13.63;;
14760;SDS011;7472;45.396;5.272;2022-08-19T10:35:06;13.55;;;12.25;;
14760;SDS011;7472;45.396;5.272;2022-08-19T10:37:34;13.82;;;12.63;;
14760;SDS011;7472;45.396;5.272;2022-08-19T10:40:02;14.38;;;12.98;;
14760;SDS011;7472;45.396;5.272;2022-08-19T10:42:31;14.75;;;13.32;;
14760;SDS011;7472;45.396;5.272;2022-08-19T10:44:58;14.00;;;12.65;;
14760;SDS011;7472;45.396;5.272;2022-08-19T10:47:25;15.02;;;13.65;;
14760;SDS011;7472;45.396;5.272;2022-08-19T10:49:53;13.82;;;11.63;;
14760;SDS011;7472;45.396;5.272;2022-08-19T10:52:40;15.15;;;13.35;;
14760;SDS011;7472;45.396;5.272;2022-08-19T10:55:08;16.40;;;15.00;;
14760;SDS011;7472;45.396;5.272;2022-08-19T10:57:53;17.30;;;15.73;;
14760;SDS011;7472;45.396;5.272;2022-08-19T11:00:21;18.75;;;15.68;;
14760;SDS011;7472;45.396;5.272;2022-08-19T11:02:49;18.58;;;16.73;;
14760;SDS011;7472;45.396;5.272;2022-08-19T11:05:16;16.58;;;14.77;;
14760;SDS011;7472;45.396;5.272;2022-08-19T11:07:45;17.67;;;16.00;;
14760;SDS011;7472;45.396;5.272;2022-08-19T11:10:16;17.02;;;15.43;;
14760;SDS011;7472;45.396;5.272;2022-08-19T11:12:44;15.63;;;14.20;;
14760;SDS011;7472;45.396;5.272;2022-08-19T11:15:13;16.73;;;15.13;;
14760;SDS011;7472;45.396;5.272;2022-08-19T11:17:40;17.80;;;16.08;;
14760;SDS011;7472;45.396;5.272;2022-08-19T11:20:09;17.38;;;15.60;;
14760;SDS011;7472;45.396;5.272;2022-08-19T11:22:37;16.52;;;14.98;;
14760;SDS011;7472;45.396;5.272;2022-08-19T11:25:07;16.27;;;13.50;;
14760;SDS011;7472;45.396;5.272;2022-08-19T11:27:37;16.20;;;13.85;;
14760;SDS011;7472;45.396;5.272;2022-08-19T11:30:05;17.50;;;15.70;;
14760;SDS011;7472;45.396;5.272;2022-08-19T11:32:33;15.60;;;14.00;;
14760;SDS011;7472;45.396;5.272;2022-08-19T11:35:00;16.55;;;15.00;;
14760;SDS011;7472;45.396;5.272;2022-08-19T11:37:28;16.85;;;15.27;;
14760;SDS011;7472;45.396;5.272;2022-08-19T11:39:56;15.18;;;13.55;;
14760;SDS011;7472;45.396;5.272;2022-08-19T11:42:25;15.07;;;13.52;;
14760;SDS011;7472;45.396;5.272;2022-08-19T11:45:10;16.17;;;13.93;;
14760;SDS011;7472;45.396;5.272;2022-08-19T11:47:39;17.40;;;15.90;;
14760;SDS011;7472;45.396;5.272;2022-08-19T11:50:06;17.45;;;15.75;;
14760;SDS011;7472;45.396;5.272;2022-08-19T11:52:34;16.55;;;15.15;;
14760;SDS011;7472;45.396;5.272;2022-08-19T11:55:02;15.95;;;14.48;;
14760;SDS011;7472;45.396;5.272;2022-08-19T11:57:31;16.13;;;14.65;;
14760;SDS011;7472;45.396;5.272;2022-08-19T11:59:59;16.10;;;14.60;;
14760;SDS011;7472;45.396;5.272;2022-08-19T12:02:27;14.82;;;13.32;;
14760;SDS011;7472;45.396;5.272;2022-08-19T12:04:54;14.07;;;12.77;;
14760;SDS011;7472;45.396;5.272;2022-08-19T12:07:22;16.40;;;14.38;;
14760;SDS011;7472;45.396;5.272;2022-08-19T12:09:50;14.35;;;12.88;;
14760;SDS011;7472;45.396;5.272;2022-08-19T12:12:17;15.88;;;12.57;;
14760;SDS011;7472;45.396;5.272;2022-08-19T12:14:46;15.27;;;13.68;;
14760;SDS011;7472;45.396;5.272;2022-08-19T12:17:15;18.35;;;15.88;;
14760;SDS011;7472;45.396;5.272;2022-08-19T12:19:43;16.77;;;13.82;;
14760;SDS011;7472;45.396;5.272;2022-08-19T12:22:10;16.23;;;14.73;;
14760;SDS011;7472;45.396;5.272;2022-08-19T12:24:38;17.33;;;15.57;;
14760;SDS011;7472;45.396;5.272;2022-08-19T12:27:05;18.50;;;16.60;;
14760;SDS011;7472;45.396;5.272;2022-08-19T12:29:33;16.27;;;14.70;;
14760;SDS011;7472;45.396;5.272;2022-08-19T12:32:03;15.43;;;13.90;;
14760;SDS011;7472;45.396;5.272;2022-08-19T12:34:31;15.88;;;14.43;;
14760;SDS011;7472;45.396;5.272;2022-08-19T12:37:02;11.70;;;10.57;;
14760;SDS011;7472;45.396;5.272;2022-08-19T12:39:29;14.32;;;12.88;;
14760;SDS011;7472;45.396;5.272;2022-08-19T12:41:57;13.68;;;12.30;;
14760;SDS011;7472;45.396;5.272;2022-08-19T12:44:24;15.05;;;13.50;;
14760;SDS011;7472;45.396;5.272;2022-08-19T12:46:52;14.80;;;13.38;;
14760;SDS011;7472;45.396;5.272;2022-08-19T12:49:20;14.45;;;13.13;;
14760;SDS011;7472;45.396;5.272;2022-08-19T12:51:49;14.20;;;12.90;;
14760;SDS011;7472;45.396;5.272;2022-08-19T12:54:17;14.23;;;12.93;;
14760;SDS011;7472;45.396;5.272;2022-08-19T12:56:45;14.35;;;12.90;;
14760;SDS011;7472;45.396;5.272;2022-08-19T12:59:13;14.07;;;12.77;;
14760;SDS011;7472;45.396;5.272;2022-08-19T13:01:42;14.13;;;12.82;;
14760;SDS011;7472;45.396;5.272;2022-08-19T13:04:10;11.98;;;10.65;;
14760;SDS011;7472;45.396;5.272;2022-08-19T13:06:39;16.17;;;12.95;;
14760;SDS011;7472;45.396;5.272;2022-08-19T13:09:07;13.50;;;12.20;;
14760;SDS011;7472;45.396;5.272;2022-08-19T13:11:35;13.93;;;12.43;;
14760;SDS011;7472;45.396;5.272;2022-08-19T13:14:02;12.27;;;11.02;;
14760;SDS011;7472;45.396;5.272;2022-08-19T13:16:30;12.40;;;11.20;;
14760;SDS011;7472;45.396;5.272;2022-08-19T13:18:58;12.70;;;11.50;;
14760;SDS011;7472;45.396;5.272;2022-08-19T13:21:28;14.30;;;12.80;;
14760;SDS011;7472;45.396;5.272;2022-08-19T13:23:58;14.68;;;13.10;;
14760;SDS011;7472;45.396;5.272;2022-08-19T13:26:26;14.32;;;12.93;;
14760;SDS011;7472;45.396;5.272;2022-08-19T13:28:53;14.60;;;13.13;;
14760;SDS011;7472;45.396;5.272;2022-08-19T13:31:39;13.95;;;12.18;;
14760;SDS011;7472;45.396;5.272;2022-08-19T13:34:26;13.95;;;12.50;;
14760;SDS011;7472;45.396;5.272;2022-08-19T13:36:54;14.93;;;13.52;;
14760;SDS011;7472;45.396;5.272;2022-08-19T13:39:25;13.35;;;12.05;;
14760;SDS011;7472;45.396;5.272;2022-08-19T13:41:53;13.60;;;12.20;;
14760;SDS011;7472;45.396;5.272;2022-08-19T13:44:20;13.60;;;12.30;;
14760;SDS011;7472;45.396;5.272;2022-08-19T13:46:48;15.35;;;13.95;;
14760;SDS011;7472;45.396;5.272;2022-08-19T13:49:18;14.98;;;13.48;;
14760;SDS011;7472;45.396;5.272;2022-08-19T13:51:48;17.08;;;15.13;;
14760;SDS011;7472;45.396;5.272;2022-08-19T13:54:15;16.90;;;15.18;;
14760;SDS011;7472;45.396;5.272;2022-08-19T13:56:44;15.35;;;13.95;;
14760;SDS011;7472;45.396;5.272;2022-08-19T13:59:12;17.77;;;16.23;;
14760;SDS011;7472;45.396;5.272;2022-08-19T14:01:39;16.40;;;14.95;;
14760;SDS011;7472;45.396;5.272;2022-08-19T14:04:07;18.55;;;16.85;;
14760;SDS011;7472;45.396;5.272;2022-08-19T14:06:34;19.10;;;17.30;;
14760;SDS011;7472;45.396;5.272;2022-08-19T14:09:02;19.00;;;17.30;;
14760;SDS011;7472;45.396;5.272;2022-08-19T14:11:32;19.02;;;16.15;;
14760;SDS011;7472;45.396;5.272;2022-08-19T14:14:01;19.20;;;17.40;;
14760;SDS011;7472;45.396;5.272;2022-08-19T14:16:28;17.60;;;15.70;;
14760;SDS011;7472;45.396;5.272;2022-08-19T14:18:56;17.77;;;16.00;;
14760;SDS011;7472;45.396;5.272;2022-08-19T14:21:26;14.63;;;13.32;;
14760;SDS011;7472;45.396;5.272;2022-08-19T14:23:54;15.43;;;13.82;;
14760;SDS011;7472;45.396;5.272;2022-08-19T14:26:21;15.52;;;13.93;;
14760;SDS011;7472;45.396;5.272;2022-08-19T14:28:49;14.82;;;13.50;;
14760;SDS011;7472;45.396;5.272;2022-08-19T14:31:19;15.13;;;12.73;;
14760;SDS011;7472;45.396;5.272;2022-08-19T14:33:48;15.23;;;12.77;;
14760;SDS011;7472;45.396;5.272;2022-08-19T14:36:16;13.80;;;12.07;;
14760;SDS011;7472;45.396;5.272;2022-08-19T14:38:44;14.23;;;12.63;;
14760;SDS011;7472;45.396;5.272;2022-08-19T14:41:13;13.45;;;12.13;;
14760;SDS011;7472;45.396;5.272;2022-08-19T14:43:41;12.25;;;11.05;;
14760;SDS011;7472;45.396;5.272;2022-08-19T14:46:14;10.93;;;9.90;;
14760;SDS011;7472;45.396;5.272;2022-08-19T14:48:44;11.85;;;10.75;;
14760;SDS011;7472;45.396;5.272;2022-08-19T14:51:11;11.25;;;10.18;;
14760;SDS011;7472;45.396;5.272;2022-08-19T14:53:39;11.88;;;10.80;;
14760;SDS011;7472;45.396;5.272;2022-08-19T14:56:07;13.65;;;12.27;;
14760;SDS011;7472;45.396;5.272;2022-08-19T14:58:34;12.70;;;11.50;;
14760;SDS011;7472;45.396;5.272;2022-08-19T15:01:02;11.18;;;10.13;;